createdAt,value
2023-05-13T00:01:27.542Z,87.30
2023-05-13T00:03:54.256Z,87.20
2023-05-13T00:06:21.611Z,87.70
2023-05-13T00:08:48.370Z,86.90
2023-05-13T00:11:15.039Z,86.60
2023-05-13T00:13:41.693Z,86.50
2023-05-13T00:16:08.416Z,86.30
2023-05-13T00:18:35.431Z,87.30
2023-05-13T00:21:02.079Z,87.70
2023-05-13T00:23:28.755Z,88.90
2023-05-13T00:25:55.586Z,90.60
2023-05-13T00:28:22.306Z,90.70
2023-05-13T00:30:49.213Z,90.90
2023-05-13T00:33:16.123Z,91.50
2023-05-13T00:35:42.962Z,91.60
2023-05-13T00:38:09.949Z,92.80
2023-05-13T00:40:39.801Z,92.50
2023-05-13T00:43:06.459Z,92.60
2023-05-13T00:45:33.218Z,93.80
2023-05-13T00:48:00.827Z,93.70
2023-05-13T00:50:27.503Z,94.20
2023-05-13T00:52:57.121Z,94.60
2023-05-13T00:55:23.901Z,95.70
2023-05-13T00:57:50.584Z,96.00
2023-05-13T01:00:17.697Z,95.60
2023-05-13T01:03:06.073Z,95.80
2023-05-13T01:05:54.437Z,97.00
2023-05-13T01:08:36.841Z,96.30
2023-05-13T01:11:15.989Z,97.60
2023-05-13T01:13:47.012Z,97.40
2023-05-13T01:16:20.915Z,98.40
2023-05-13T01:18:56.724Z,99.90
2023-05-13T01:21:27.635Z,99.90
2023-05-13T01:23:55.492Z,99.90
2023-05-13T01:26:24.235Z,99.90
2023-05-13T01:28:51.088Z,99.90
2023-05-13T01:31:20.289Z,99.90
2023-05-13T01:33:47.570Z,99.90
2023-05-13T01:36:14.395Z,99.90
2023-05-13T01:38:41.950Z,99.90
2023-05-13T01:41:08.677Z,99.90
2023-05-13T01:43:35.376Z,99.90
2023-05-13T01:46:02.366Z,99.90
2023-05-13T01:48:29.042Z,99.90
2023-05-13T01:50:56.311Z,99.90
2023-05-13T01:53:23.273Z,99.90
2023-05-13T01:55:50.531Z,99.90
2023-05-13T01:58:17.171Z,99.90
2023-05-13T02:00:43.831Z,99.90
2023-05-13T02:03:10.662Z,99.90
2023-05-13T02:05:37.458Z,99.90
2023-05-13T02:08:04.439Z,99.90
2023-05-13T02:10:31.173Z,99.90
2023-05-13T02:12:57.817Z,99.90
2023-05-13T02:15:24.626Z,99.90
2023-05-13T02:17:51.485Z,99.90
2023-05-13T02:20:18.276Z,99.90
2023-05-13T02:22:44.955Z,99.90
2023-05-13T02:25:11.659Z,99.90
2023-05-13T02:27:38.390Z,99.90
2023-05-13T02:30:06.453Z,99.90
2023-05-13T02:32:33.174Z,99.90
2023-05-13T02:34:59.832Z,99.90
2023-05-13T02:37:26.766Z,99.90
2023-05-13T02:39:53.491Z,99.90
2023-05-13T02:42:21.058Z,99.90
2023-05-13T02:44:48.502Z,99.90
2023-05-13T02:47:15.352Z,99.90
2023-05-13T02:49:42.092Z,99.90
2023-05-13T02:52:08.761Z,99.90
2023-05-13T02:54:35.502Z,99.90
2023-05-13T02:57:02.150Z,99.90
2023-05-13T02:59:28.905Z,99.90
2023-05-13T03:01:55.581Z,99.90
2023-05-13T03:04:22.250Z,99.90
2023-05-13T03:06:49.088Z,99.90
2023-05-13T03:09:15.885Z,99.90
2023-05-13T03:11:42.547Z,99.90
2023-05-13T03:14:09.184Z,99.90
2023-05-13T03:16:35.954Z,99.90
2023-05-13T03:19:02.762Z,99.90
2023-05-13T03:21:29.409Z,99.90
2023-05-13T03:23:56.050Z,99.90
2023-05-13T03:26:22.719Z,99.90
2023-05-13T03:28:49.432Z,99.90
2023-05-13T03:31:16.230Z,99.90
2023-05-13T03:33:43.299Z,99.90
2023-05-13T03:36:09.979Z,99.90
2023-05-13T03:38:36.650Z,99.90
2023-05-13T03:41:03.336Z,99.90
2023-05-13T03:43:30.007Z,99.90
2023-05-13T03:45:56.650Z,99.90
2023-05-13T03:48:23.301Z,99.90
2023-05-13T03:50:50.045Z,99.90
2023-05-13T03:53:17.358Z,99.90
2023-05-13T03:55:44.007Z,99.90
2023-05-13T03:58:14.921Z,99.90
2023-05-13T04:00:43.121Z,99.90
2023-05-13T04:03:10.544Z,99.90
2023-05-13T04:05:37.378Z,99.90
2023-05-13T04:08:04.270Z,99.90
2023-05-13T04:10:30.991Z,99.90
2023-05-13T04:12:57.699Z,99.90
2023-05-13T04:15:24.440Z,99.90
2023-05-13T04:17:52.500Z,99.90
2023-05-13T04:20:19.734Z,99.90
2023-05-13T04:22:48.548Z,99.90
2023-05-13T04:25:15.465Z,99.90
2023-05-13T04:27:42.272Z,99.90
2023-05-13T04:30:09.599Z,99.90
2023-05-13T04:32:36.431Z,99.90
2023-05-13T04:35:03.158Z,99.90
2023-05-13T04:37:29.937Z,99.90
2023-05-13T04:39:56.595Z,99.90
2023-05-13T04:42:23.321Z,99.90
2023-05-13T04:44:50.051Z,99.70
2023-05-13T04:47:16.731Z,99.40
2023-05-13T04:49:43.397Z,99.70
2023-05-13T04:52:12.954Z,98.60
2023-05-13T04:54:39.966Z,98.10
2023-05-13T04:57:06.926Z,95.00
2023-05-13T04:59:34.089Z,79.00
2023-05-13T05:02:00.999Z,65.80
2023-05-13T05:04:27.896Z,60.70
2023-05-13T05:06:54.593Z,56.00
2023-05-13T05:09:21.260Z,52.80
2023-05-13T05:11:50.285Z,50.50
2023-05-13T05:14:17.525Z,47.50
2023-05-13T05:16:44.310Z,47.80
2023-05-13T05:19:11.009Z,47.50
2023-05-13T05:21:38.161Z,46.80
2023-05-13T05:24:06.045Z,47.20
2023-05-13T05:26:32.764Z,46.00
2023-05-13T05:28:59.424Z,43.60
2023-05-13T05:31:27.635Z,45.00
2023-05-13T05:33:56.283Z,43.70
2023-05-13T05:36:23.032Z,43.90
2023-05-13T05:38:49.703Z,43.30
2023-05-13T05:41:16.531Z,43.30
2023-05-13T05:43:43.204Z,43.80
2023-05-13T05:46:09.931Z,43.70
2023-05-13T05:48:36.753Z,44.10
2023-05-13T05:51:03.647Z,43.90
2023-05-13T05:53:30.365Z,42.80
2023-05-13T05:55:57.041Z,41.70
2023-05-13T05:58:23.826Z,41.30
2023-05-13T06:00:50.684Z,40.60
2023-05-13T06:03:17.663Z,39.90
2023-05-13T06:05:44.962Z,40.00
2023-05-13T06:08:11.634Z,40.20
2023-05-13T06:10:38.629Z,40.30
2023-05-13T06:13:05.531Z,39.10
2023-05-13T06:15:32.262Z,38.70
2023-05-13T06:17:59.011Z,40.90
2023-05-13T06:20:25.767Z,43.20
2023-05-13T06:22:52.406Z,45.90
2023-05-13T06:25:19.174Z,45.50
2023-05-13T06:27:45.933Z,45.60
2023-05-13T06:30:12.809Z,45.80
2023-05-13T06:32:42.842Z,46.60
2023-05-13T06:35:14.373Z,47.20
2023-05-13T06:37:41.072Z,45.80
2023-05-13T06:40:08.364Z,45.00
2023-05-13T06:42:40.018Z,42.50
2023-05-13T06:45:08.352Z,41.90
2023-05-13T06:47:35.784Z,43.20
2023-05-13T06:50:03.543Z,45.10
2023-05-13T06:52:31.508Z,44.30
2023-05-13T06:54:59.866Z,43.50
2023-05-13T06:57:38.760Z,41.50
2023-05-13T07:00:09.229Z,40.40
2023-05-13T07:02:35.938Z,40.20
2023-05-13T07:05:03.117Z,39.60
2023-05-13T07:07:29.852Z,40.70
2023-05-13T07:09:57.027Z,39.50
2023-05-13T07:12:23.865Z,39.00
2023-05-13T07:14:50.839Z,40.70
2023-05-13T07:17:18.009Z,41.90
2023-05-13T07:19:44.793Z,40.80
2023-05-13T07:22:11.512Z,38.90
2023-05-13T07:24:39.047Z,39.50
2023-05-13T07:27:05.875Z,39.30
2023-05-13T07:29:34.065Z,40.40
2023-05-13T07:32:07.149Z,42.80
2023-05-13T07:34:33.819Z,43.60
2023-05-13T07:37:00.566Z,43.40
2023-05-13T07:39:27.795Z,43.80
2023-05-13T07:41:54.977Z,43.20
2023-05-13T07:44:22.084Z,41.00
2023-05-13T07:46:49.414Z,40.20
2023-05-13T07:49:16.306Z,39.80
2023-05-13T07:51:42.997Z,40.20
2023-05-13T07:54:10.265Z,39.40
2023-05-13T07:56:38.124Z,38.10
2023-05-13T07:59:05.113Z,38.10
2023-05-13T08:01:31.931Z,38.70
2023-05-13T08:03:58.902Z,39.30
2023-05-13T08:06:25.992Z,39.30
2023-05-13T08:08:52.659Z,39.10
2023-05-13T08:11:19.404Z,38.80
2023-05-13T08:13:46.058Z,38.20
2023-05-13T08:16:12.806Z,39.20
2023-05-13T08:18:39.643Z,38.70
2023-05-13T08:21:06.508Z,40.00
2023-05-13T08:23:44.206Z,40.80
2023-05-13T08:26:12.407Z,39.90
2023-05-13T08:28:39.172Z,38.60
2023-05-13T08:31:05.922Z,39.40
2023-05-13T08:33:33.120Z,37.40
2023-05-13T08:36:00.816Z,37.30
2023-05-13T08:38:27.757Z,39.60
2023-05-13T08:40:54.801Z,38.70
2023-05-13T08:43:24.064Z,39.00
2023-05-13T08:45:53.281Z,41.20
2023-05-13T08:48:20.314Z,40.90
2023-05-13T08:50:47.781Z,40.40
2023-05-13T08:53:17.111Z,39.60
2023-05-13T08:55:43.829Z,39.30
2023-05-13T08:58:10.607Z,38.70
2023-05-13T09:00:37.759Z,39.40
2023-05-13T09:03:04.702Z,38.70
2023-05-13T09:05:32.048Z,38.40
2023-05-13T09:08:00.458Z,40.50
2023-05-13T09:10:27.878Z,40.90
2023-05-13T09:12:55.566Z,41.20
2023-05-13T09:15:26.792Z,41.20
2023-05-13T09:17:59.874Z,41.60
2023-05-13T09:20:27.128Z,43.10
2023-05-13T09:23:00.099Z,41.80
2023-05-13T09:25:28.070Z,41.80
2023-05-13T09:27:59.786Z,43.90
2023-05-13T09:30:28.184Z,44.10
2023-05-13T09:33:20.199Z,44.70
2023-05-13T09:35:53.864Z,44.60
2023-05-13T09:38:22.292Z,44.60
2023-05-13T09:40:57.430Z,44.70
2023-05-13T09:43:26.573Z,43.80
2023-05-13T09:45:57.686Z,43.60
2023-05-13T09:48:29.090Z,43.90
2023-05-13T09:50:58.140Z,43.90
2023-05-13T09:53:26.451Z,43.70
2023-05-13T09:55:55.709Z,43.20
2023-05-13T09:58:24.627Z,43.70
2023-05-13T10:00:52.336Z,43.00
2023-05-13T10:03:19.282Z,43.50
2023-05-13T10:05:46.254Z,43.50
2023-05-13T10:08:14.833Z,43.00
2023-05-13T10:10:45.855Z,43.20
2023-05-13T10:13:18.879Z,43.10
2023-05-13T10:15:55.483Z,42.90
2023-05-13T10:18:23.992Z,44.10
2023-05-13T10:20:53.603Z,44.40
2023-05-13T10:23:22.505Z,44.90
2023-05-13T10:25:50.570Z,44.60
2023-05-13T10:28:17.387Z,44.70
2023-05-13T10:30:45.053Z,45.40
2023-05-13T10:33:12.116Z,45.40
2023-05-13T10:35:43.423Z,44.80
2023-05-13T10:38:16.822Z,45.20
2023-05-13T10:41:05.082Z,44.00
2023-05-13T10:43:34.194Z,43.70
2023-05-13T10:46:04.316Z,43.50
2023-05-13T10:48:48.647Z,44.20
2023-05-13T10:51:17.278Z,45.40
2023-05-13T10:53:52.699Z,45.90
2023-05-13T10:56:28.316Z,46.30
2023-05-13T10:59:02.517Z,46.30
2023-05-13T11:01:43.564Z,45.90
2023-05-13T11:04:17.357Z,45.50
2023-05-13T11:06:48.662Z,45.50
2023-05-13T11:09:29.842Z,45.00
2023-05-13T11:12:00.526Z,45.20
2023-05-13T11:14:27.685Z,45.10
2023-05-13T11:17:00.547Z,45.40
2023-05-13T11:19:37.380Z,45.00
2023-05-13T11:22:21.937Z,45.10
2023-05-13T11:25:17.682Z,45.80
2023-05-13T11:27:44.486Z,46.40
2023-05-13T11:30:26.363Z,47.00
2023-05-13T11:33:00.287Z,46.10
2023-05-13T11:35:31.789Z,45.00
2023-05-13T11:38:03.205Z,44.70
2023-05-13T11:40:32.897Z,46.00
2023-05-13T11:43:00.336Z,45.10
2023-05-13T11:45:28.126Z,44.60
2023-05-13T11:47:56.059Z,44.80
2023-05-13T11:50:30.415Z,44.80
2023-05-13T11:52:59.174Z,45.00
2023-05-13T11:55:31.139Z,44.80
2023-05-13T11:57:59.489Z,45.00
2023-05-13T12:00:29.758Z,46.30
2023-05-13T12:02:57.367Z,44.70
2023-05-13T12:05:25.316Z,44.10
2023-05-13T12:07:56.109Z,43.10
2023-05-13T12:10:23.687Z,43.40
2023-05-13T12:12:51.730Z,43.30
2023-05-13T12:15:20.085Z,42.30
2023-05-13T12:17:48.448Z,43.60
2023-05-13T12:20:19.496Z,43.20
2023-05-13T12:22:46.137Z,43.90
2023-05-13T12:25:43.827Z,43.90
2023-05-13T12:28:18.994Z,44.50
2023-05-13T12:31:05.763Z,44.90
2023-05-13T12:33:40.566Z,44.80
2023-05-13T12:36:20.251Z,44.70
2023-05-13T12:39:07.042Z,44.90
2023-05-13T12:41:38.554Z,45.40
2023-05-13T12:44:10.133Z,46.00
2023-05-13T12:46:37.582Z,45.80
2023-05-13T12:49:06.026Z,46.30
2023-05-13T12:51:34.002Z,45.80
2023-05-13T12:54:00.871Z,45.80
2023-05-13T12:56:27.742Z,45.90
2023-05-13T12:58:54.810Z,45.40
2023-05-13T13:01:21.956Z,44.60
2023-05-13T13:03:49.028Z,44.40
2023-05-13T13:06:16.191Z,45.20
2023-05-13T13:08:43.098Z,45.50
2023-05-13T13:11:10.480Z,45.50
2023-05-13T13:13:39.102Z,45.40
2023-05-13T13:16:06.665Z,44.40
2023-05-13T13:18:33.456Z,44.30
2023-05-13T13:21:00.132Z,43.80
2023-05-13T13:23:26.849Z,44.40
2023-05-13T13:25:53.736Z,44.30
2023-05-13T13:28:20.380Z,44.60
2023-05-13T13:30:47.417Z,46.30
2023-05-13T13:33:15.642Z,44.10
2023-05-13T13:35:46.996Z,44.50
2023-05-13T13:38:14.273Z,44.20
2023-05-13T13:40:41.243Z,44.40
2023-05-13T13:43:08.748Z,43.70
2023-05-13T13:45:36.248Z,44.10
2023-05-13T13:48:03.090Z,44.90
2023-05-13T13:50:29.884Z,45.50
2023-05-13T13:52:56.630Z,45.50
2023-05-13T13:55:24.132Z,47.70
2023-05-13T13:57:51.884Z,50.00
2023-05-13T14:00:19.202Z,51.10
2023-05-13T14:02:46.256Z,55.10
2023-05-13T14:05:13.473Z,53.20
2023-05-13T14:07:40.570Z,50.50
2023-05-13T14:10:08.222Z,50.80
2023-05-13T14:12:38.006Z,51.20
2023-05-13T14:15:05.386Z,51.70
2023-05-13T14:17:32.951Z,51.30
2023-05-13T14:19:59.654Z,51.60
2023-05-13T14:22:26.349Z,51.90
2023-05-13T14:24:53.194Z,51.60
2023-05-13T14:27:20.895Z,51.30
2023-05-13T14:29:48.574Z,50.80
2023-05-13T14:32:15.661Z,51.20
2023-05-13T14:34:42.753Z,50.80
2023-05-13T14:37:09.442Z,50.80
2023-05-13T14:39:36.283Z,51.30
2023-05-13T14:42:04.450Z,50.90
2023-05-13T14:44:32.101Z,50.30
2023-05-13T14:46:59.082Z,50.80
2023-05-13T14:49:25.771Z,50.50
2023-05-13T14:51:52.639Z,51.20
2023-05-13T14:54:19.345Z,51.40
2023-05-13T14:56:46.253Z,51.30
2023-05-13T14:59:13.149Z,51.10
2023-05-13T15:01:39.920Z,51.10
2023-05-13T15:04:06.614Z,51.30
2023-05-13T15:06:33.920Z,51.50
2023-05-13T15:09:00.687Z,50.90
2023-05-13T15:11:30.624Z,50.80
2023-05-13T15:13:57.309Z,51.10
2023-05-13T15:16:24.031Z,50.80
2023-05-13T15:18:50.841Z,50.90
2023-05-13T15:21:18.048Z,50.80
2023-05-13T15:23:44.809Z,50.90
2023-05-13T15:26:11.611Z,50.20
2023-05-13T15:28:38.289Z,49.30
2023-05-13T15:31:06.302Z,49.40
2023-05-13T15:33:33.453Z,49.30
2023-05-13T15:36:01.093Z,49.30
2023-05-13T15:38:28.153Z,48.80
2023-05-13T15:40:54.870Z,48.10
2023-05-13T15:43:21.574Z,48.10
2023-05-13T15:45:50.054Z,47.60
2023-05-13T15:48:17.665Z,47.70
2023-05-13T15:50:44.614Z,47.80
2023-05-13T15:53:11.524Z,47.90
2023-05-13T15:55:39.487Z,48.10
2023-05-13T15:58:06.940Z,48.10
2023-05-13T16:00:33.925Z,48.60
2023-05-13T16:03:00.749Z,48.70
2023-05-13T16:05:27.427Z,48.50
2023-05-13T16:07:54.936Z,49.10
2023-05-13T16:10:21.934Z,49.50
2023-05-13T16:12:48.906Z,50.20
2023-05-13T16:15:15.700Z,50.30
2023-05-13T16:17:42.365Z,49.70
2023-05-13T16:20:11.534Z,49.70
2023-05-13T16:22:39.138Z,50.00
2023-05-13T16:25:08.137Z,50.00
2023-05-13T16:27:36.175Z,50.40
2023-05-13T16:30:04.299Z,50.30
2023-05-13T16:32:31.075Z,50.40
2023-05-13T16:34:58.121Z,50.60
2023-05-13T16:37:24.903Z,51.10
2023-05-13T16:39:51.563Z,50.80
2023-05-13T16:42:19.673Z,50.80
2023-05-13T16:44:47.302Z,50.90
2023-05-13T16:47:14.405Z,50.90
2023-05-13T16:49:41.073Z,51.20
2023-05-13T16:52:07.836Z,51.30
2023-05-13T16:54:34.591Z,51.80
2023-05-13T16:57:01.326Z,52.00
2023-05-13T16:59:28.417Z,52.40
2023-05-13T17:01:55.147Z,52.80
2023-05-13T17:04:21.816Z,53.20
2023-05-13T17:06:48.543Z,53.70
2023-05-13T17:09:16.106Z,53.80
2023-05-13T17:11:42.828Z,54.50
2023-05-13T17:14:09.710Z,55.50
2023-05-13T17:16:36.490Z,55.60
2023-05-13T17:19:03.386Z,55.30
2023-05-13T17:21:30.229Z,54.60
2023-05-13T17:23:56.899Z,53.10
2023-05-13T17:26:23.592Z,52.70
2023-05-13T17:28:50.310Z,52.90
2023-05-13T17:31:17.050Z,52.80
2023-05-13T17:33:43.812Z,52.70
2023-05-13T17:36:11.038Z,53.00
2023-05-13T17:38:38.310Z,52.90
2023-05-13T17:41:05.225Z,53.20
2023-05-13T17:43:31.966Z,53.50
2023-05-13T17:45:58.905Z,53.60
2023-05-13T17:48:26.843Z,53.80
2023-05-13T17:50:53.922Z,53.80
2023-05-13T17:53:21.359Z,54.30
2023-05-13T17:55:48.704Z,55.30
2023-05-13T17:58:16.386Z,58.00
2023-05-13T18:00:43.291Z,58.70
2023-05-13T18:03:10.149Z,60.30
2023-05-13T18:05:37.121Z,61.70
2023-05-13T18:08:03.922Z,61.90
2023-05-13T18:10:30.655Z,61.60
2023-05-13T18:12:57.394Z,61.90
2023-05-13T18:15:24.100Z,61.20
2023-05-13T18:17:51.117Z,59.60
2023-05-13T18:20:18.626Z,59.60
2023-05-13T18:22:45.530Z,59.30
2023-05-13T18:25:12.224Z,59.10
2023-05-13T18:27:38.928Z,59.30
2023-05-13T18:30:07.004Z,58.70
2023-05-13T18:32:33.766Z,58.60
2023-05-13T18:35:00.686Z,58.80
2023-05-13T18:37:27.401Z,58.60
2023-05-13T18:39:54.077Z,58.90
2023-05-13T18:42:21.315Z,58.80
2023-05-13T18:44:47.976Z,60.00
2023-05-13T18:47:14.658Z,60.90
2023-05-13T18:49:41.405Z,62.50
2023-05-13T18:52:08.119Z,61.30
2023-05-13T18:54:35.403Z,60.30
2023-05-13T18:57:02.177Z,61.80
2023-05-13T18:59:29.027Z,60.50
2023-05-13T19:01:56.117Z,61.60
2023-05-13T19:04:23.256Z,63.30
2023-05-13T19:06:50.433Z,63.70
2023-05-13T19:09:17.103Z,63.10
2023-05-13T19:11:44.260Z,63.80
2023-05-13T19:14:10.926Z,63.50
2023-05-13T19:16:37.731Z,63.00
2023-05-13T19:19:04.965Z,62.90
2023-05-13T19:21:31.671Z,64.60
2023-05-13T19:23:58.661Z,65.50
2023-05-13T19:26:25.588Z,64.70
2023-05-13T19:28:52.482Z,65.00
2023-05-13T19:31:19.155Z,65.60
2023-05-13T19:33:46.477Z,65.90
2023-05-13T19:36:13.368Z,65.40
2023-05-13T19:38:40.079Z,64.60
2023-05-13T19:41:06.789Z,65.10
2023-05-13T19:43:33.475Z,66.40
2023-05-13T19:46:00.343Z,67.10
2023-05-13T19:48:29.639Z,67.10
2023-05-13T19:50:57.880Z,67.00
2023-05-13T19:53:24.709Z,67.30
2023-05-13T19:55:51.465Z,67.70
2023-05-13T19:58:18.284Z,68.70
2023-05-13T20:00:45.212Z,69.90
2023-05-13T20:03:12.150Z,70.10
2023-05-13T20:05:41.133Z,70.40
2023-05-13T20:08:07.862Z,69.90
2023-05-13T20:10:36.659Z,70.40
2023-05-13T20:13:04.725Z,70.60
2023-05-13T20:15:32.168Z,71.20
2023-05-13T20:17:59.105Z,71.50
2023-05-13T20:20:25.901Z,71.90
2023-05-13T20:22:52.674Z,71.30
2023-05-13T20:25:19.530Z,70.20
2023-05-13T20:27:46.200Z,69.20
2023-05-13T20:30:13.657Z,69.20
2023-05-13T20:32:40.452Z,68.60
2023-05-13T20:35:08.641Z,66.00
2023-05-13T20:37:35.554Z,65.30
2023-05-13T20:40:02.466Z,64.70
2023-05-13T20:42:29.161Z,64.30
2023-05-13T20:44:56.127Z,63.90
2023-05-13T20:47:22.843Z,63.90
2023-05-13T20:49:49.579Z,63.70
2023-05-13T20:52:16.686Z,64.10
2023-05-13T20:54:43.565Z,64.20
2023-05-13T20:57:10.241Z,65.00
2023-05-13T20:59:37.358Z,65.80
2023-05-13T21:02:04.258Z,66.20
2023-05-13T21:04:31.044Z,66.50
2023-05-13T21:06:57.726Z,66.70
2023-05-13T21:09:24.444Z,66.50
2023-05-13T21:11:51.093Z,66.80
2023-05-13T21:14:17.750Z,67.20
2023-05-13T21:16:44.511Z,67.50
2023-05-13T21:19:20.484Z,67.70
2023-05-13T21:21:47.262Z,67.70
2023-05-13T21:24:18.606Z,68.00
2023-05-13T21:26:49.209Z,68.30
2023-05-13T21:29:17.377Z,68.90
2023-05-13T21:31:46.088Z,69.90
2023-05-13T21:34:13.063Z,70.20
2023-05-13T21:36:39.774Z,70.10
2023-05-13T21:39:07.698Z,71.00
2023-05-13T21:41:34.430Z,70.40
2023-05-13T21:44:01.074Z,70.90
2023-05-13T21:46:27.827Z,66.40
2023-05-13T21:48:54.637Z,63.50
2023-05-13T21:51:21.889Z,62.10
2023-05-13T21:53:48.586Z,61.50
2023-05-13T21:56:15.424Z,60.80
2023-05-13T21:58:42.131Z,60.40
2023-05-13T22:01:08.831Z,62.30
2023-05-13T22:03:35.628Z,64.20
2023-05-13T22:06:02.539Z,64.10
2023-05-13T22:08:30.119Z,64.70
2023-05-13T22:10:56.927Z,64.70
2023-05-13T22:13:25.494Z,65.10
2023-05-13T22:15:52.249Z,63.30
2023-05-13T22:18:19.355Z,62.80
2023-05-13T22:20:46.065Z,62.00
2023-05-13T22:23:12.730Z,61.50
2023-05-13T22:25:39.438Z,60.80
2023-05-13T22:28:06.437Z,60.80
2023-05-13T22:30:33.173Z,61.20
2023-05-13T22:32:59.935Z,61.60
2023-05-13T22:35:28.870Z,62.30
2023-05-13T22:37:55.579Z,62.50
2023-05-13T22:40:22.762Z,62.50
2023-05-13T22:42:49.676Z,62.90
2023-05-13T22:45:16.382Z,63.50
2023-05-13T22:47:43.160Z,62.90
2023-05-13T22:50:12.202Z,63.20
2023-05-13T22:52:39.085Z,65.10
2023-05-13T22:55:06.691Z,65.20
2023-05-13T22:57:33.343Z,65.70
2023-05-13T23:00:00.109Z,66.70
2023-05-13T23:02:26.829Z,67.00
2023-05-13T23:04:53.449Z,67.30
2023-05-13T23:07:20.340Z,66.40
2023-05-13T23:09:47.025Z,65.50
2023-05-13T23:12:13.689Z,65.30
2023-05-13T23:14:40.418Z,65.40
2023-05-13T23:17:07.990Z,66.60
2023-05-13T23:19:34.723Z,66.20
2023-05-13T23:22:07.262Z,67.50
2023-05-13T23:24:33.988Z,67.00
2023-05-13T23:27:00.645Z,67.40
2023-05-13T23:29:27.730Z,67.50
2023-05-13T23:31:55.284Z,67.70
2023-05-13T23:34:22.081Z,67.70
2023-05-13T23:36:48.754Z,66.60
2023-05-13T23:39:15.452Z,67.40
2023-05-13T23:41:42.405Z,67.40
2023-05-13T23:44:09.108Z,67.60
2023-05-13T23:46:35.791Z,67.40
2023-05-13T23:49:02.653Z,67.50
2023-05-13T23:51:29.542Z,68.20
2023-05-13T23:53:56.402Z,68.30
2023-05-13T23:56:23.075Z,69.30
2023-05-13T23:58:49.931Z,69.10
